createdAt,value
2022-08-26T00:01:19.034Z,11.98
2022-08-26T00:03:55.410Z,11.05
2022-08-26T00:06:21.995Z,11.77
2022-08-26T00:08:48.927Z,12.40
2022-08-26T00:11:15.258Z,12.25
2022-08-26T00:13:52.893Z,12.05
2022-08-26T00:16:19.732Z,12.65
2022-08-26T00:18:46.369Z,11.93
2022-08-26T00:21:12.720Z,11.80
2022-08-26T00:23:39.440Z,11.88
2022-08-26T00:26:06.682Z,12.50
2022-08-26T00:28:35.382Z,13.35
2022-08-26T00:31:01.883Z,12.05
2022-08-26T00:33:28.357Z,13.13
2022-08-26T00:35:54.936Z,12.45
2022-08-26T00:38:22.255Z,12.93
2022-08-26T00:40:53.743Z,12.35
2022-08-26T00:43:21.783Z,13.13
2022-08-26T00:46:14.010Z,12.82
2022-08-26T00:48:43.826Z,13.20
2022-08-26T00:51:21.331Z,12.63
2022-08-26T00:53:53.589Z,14.15
2022-08-26T00:56:29.203Z,14.10
2022-08-26T00:58:58.700Z,12.70
2022-08-26T01:01:25.422Z,13.40
2022-08-26T01:03:52.392Z,13.05
2022-08-26T01:06:19.542Z,13.98
2022-08-26T01:08:45.916Z,13.15
2022-08-26T01:11:12.651Z,13.23
2022-08-26T01:13:39.973Z,13.98
2022-08-26T01:16:13.197Z,14.02
2022-08-26T01:18:41.597Z,14.60
2022-08-26T01:21:31.143Z,14.30
2022-08-26T01:23:58.378Z,13.77
2022-08-26T01:26:29.676Z,14.23
2022-08-26T01:28:58.893Z,14.57
2022-08-26T01:31:29.351Z,15.15
2022-08-26T01:34:10.317Z,14.52
2022-08-26T01:36:38.245Z,14.00
2022-08-26T01:39:06.012Z,13.43
2022-08-26T01:41:34.913Z,13.95
2022-08-26T01:44:03.145Z,14.25
2022-08-26T01:46:30.436Z,14.02
2022-08-26T01:49:00.398Z,14.35
2022-08-26T01:51:27.788Z,15.10
2022-08-26T01:53:54.963Z,13.95
2022-08-26T01:56:23.827Z,13.93
2022-08-26T01:59:02.617Z,15.20
2022-08-26T02:01:29.410Z,15.07
2022-08-26T02:04:09.952Z,15.63
2022-08-26T02:06:38.468Z,14.73
2022-08-26T02:09:06.633Z,14.27
2022-08-26T02:11:33.903Z,13.80
2022-08-26T02:14:09.804Z,14.48
2022-08-26T02:16:39.868Z,14.57
2022-08-26T02:19:17.029Z,14.38
2022-08-26T02:21:45.500Z,14.02
2022-08-26T02:24:19.264Z,14.65
2022-08-26T02:26:46.889Z,15.63
2022-08-26T02:29:24.102Z,14.65
2022-08-26T02:31:51.439Z,15.82
2022-08-26T02:34:26.183Z,14.57
2022-08-26T02:37:02.366Z,13.98
2022-08-26T02:39:31.041Z,15.13
2022-08-26T02:41:58.392Z,14.13
2022-08-26T02:44:25.531Z,14.55
2022-08-26T02:46:52.355Z,13.68
2022-08-26T02:49:21.621Z,14.40
2022-08-26T02:51:48.182Z,14.85
2022-08-26T02:54:14.528Z,15.02
2022-08-26T02:56:41.107Z,15.65
2022-08-26T02:59:08.235Z,15.30
2022-08-26T03:01:36.254Z,14.60
2022-08-26T03:04:04.674Z,14.57
2022-08-26T03:06:32.163Z,15.90
2022-08-26T03:08:59.154Z,14.55
2022-08-26T03:11:29.621Z,14.05
2022-08-26T03:13:59.529Z,14.48
2022-08-26T03:16:32.351Z,13.52
2022-08-26T03:19:00.333Z,14.32
2022-08-26T03:21:26.710Z,14.20
2022-08-26T03:23:53.404Z,15.07
2022-08-26T03:26:19.909Z,15.52
2022-08-26T03:28:46.514Z,14.23
2022-08-26T03:31:12.932Z,14.80
2022-08-26T03:33:39.490Z,14.55
2022-08-26T03:36:06.083Z,14.80
2022-08-26T03:38:32.469Z,14.65
2022-08-26T03:40:58.825Z,13.77
2022-08-26T03:43:25.218Z,15.05
2022-08-26T03:45:51.822Z,14.48
2022-08-26T03:48:19.005Z,16.30
2022-08-26T03:50:45.417Z,15.10
2022-08-26T03:53:15.135Z,15.70
2022-08-26T03:55:41.632Z,13.95
2022-08-26T03:58:08.057Z,15.48
2022-08-26T04:00:34.515Z,14.68
2022-08-26T04:03:02.564Z,14.30
2022-08-26T04:05:29.073Z,15.50
2022-08-26T04:07:55.821Z,14.52
2022-08-26T04:10:29.139Z,14.23
2022-08-26T04:12:58.884Z,14.70
2022-08-26T04:15:26.326Z,15.20
2022-08-26T04:17:53.051Z,14.82
2022-08-26T04:20:19.513Z,15.75
2022-08-26T04:22:46.137Z,14.27
2022-08-26T04:25:12.881Z,15.23
2022-08-26T04:27:39.253Z,15.38
2022-08-26T04:30:08.142Z,14.88
2022-08-26T04:32:35.265Z,13.48
2022-08-26T04:35:01.892Z,15.18
2022-08-26T04:37:28.307Z,14.48
2022-08-26T04:39:54.813Z,15.43
2022-08-26T04:42:23.303Z,14.60
2022-08-26T04:44:52.593Z,15.45
2022-08-26T04:47:19.013Z,14.27
2022-08-26T04:49:45.477Z,15.73
2022-08-26T04:52:11.859Z,14.18
2022-08-26T04:54:39.001Z,14.73
2022-08-26T04:57:08.462Z,16.17
2022-08-26T04:59:38.597Z,15.02
2022-08-26T05:02:06.410Z,15.05
2022-08-26T05:04:33.377Z,15.23
2022-08-26T05:07:02.299Z,14.82
2022-08-26T05:09:29.344Z,14.88
2022-08-26T05:11:57.058Z,15.73
2022-08-26T05:14:23.508Z,16.63
2022-08-26T05:16:50.128Z,15.65
2022-08-26T05:19:18.985Z,14.82
2022-08-26T05:21:47.254Z,16.58
2022-08-26T05:24:14.256Z,16.02
2022-08-26T05:26:40.852Z,15.43
2022-08-26T05:29:07.558Z,16.85
2022-08-26T05:31:34.713Z,16.08
2022-08-26T05:34:03.701Z,14.27
2022-08-26T05:36:32.269Z,14.32
2022-08-26T05:38:58.942Z,15.25
2022-08-26T05:41:36.295Z,14.93
2022-08-26T05:44:06.306Z,14.43
2022-08-26T05:46:33.808Z,14.75
2022-08-26T05:49:01.128Z,13.95
2022-08-26T05:51:27.518Z,14.63
2022-08-26T05:53:57.047Z,15.88
2022-08-26T05:56:25.888Z,14.70
2022-08-26T05:58:52.290Z,14.23
2022-08-26T06:01:21.622Z,14.43
2022-08-26T06:03:52.141Z,14.40
2022-08-26T06:06:27.246Z,12.40
2022-08-26T06:08:55.159Z,14.00
2022-08-26T06:11:24.079Z,12.10
2022-08-26T06:13:57.964Z,10.70
2022-08-26T06:16:28.162Z,11.65
2022-08-26T06:18:54.908Z,11.18
2022-08-26T06:21:28.166Z,12.15
2022-08-26T06:23:58.492Z,11.18
2022-08-26T06:26:25.485Z,10.50
2022-08-26T06:28:51.842Z,12.27
2022-08-26T06:31:18.682Z,11.55
2022-08-26T06:33:45.146Z,12.05
2022-08-26T06:36:20.703Z,11.82
2022-08-26T06:38:48.445Z,12.20
2022-08-26T06:41:16.435Z,11.70
2022-08-26T06:43:42.817Z,11.45
2022-08-26T06:46:12.070Z,13.23
2022-08-26T06:48:39.246Z,11.65
2022-08-26T06:51:15.130Z,12.35
2022-08-26T06:53:43.704Z,12.20
2022-08-26T06:56:11.239Z,11.55
2022-08-26T06:58:39.938Z,12.50
2022-08-26T07:01:16.209Z,11.15
2022-08-26T07:03:45.368Z,12.68
2022-08-26T07:06:13.361Z,13.13
2022-08-26T07:08:39.983Z,12.10
2022-08-26T07:11:09.319Z,11.90
2022-08-26T07:13:36.305Z,12.70
2022-08-26T07:16:07.021Z,11.35
2022-08-26T07:18:36.813Z,11.27
2022-08-26T07:21:08.498Z,12.48
2022-08-26T07:23:35.153Z,12.68
2022-08-26T07:26:13.565Z,12.07
2022-08-26T07:28:40.575Z,9.90
2022-08-26T07:31:09.644Z,11.77
2022-08-26T07:33:37.638Z,11.38
2022-08-26T07:36:07.229Z,10.18
2022-08-26T07:38:34.646Z,11.02
2022-08-26T07:41:01.056Z,11.32
2022-08-26T07:43:29.346Z,13.73
2022-08-26T07:45:55.977Z,13.07
2022-08-26T07:48:22.456Z,11.65
2022-08-26T07:50:50.586Z,12.57
2022-08-26T07:53:18.146Z,11.30
2022-08-26T07:55:46.274Z,10.02
2022-08-26T07:58:12.734Z,11.10
2022-08-26T08:00:39.141Z,10.32
2022-08-26T08:03:06.178Z,12.98
2022-08-26T08:05:33.769Z,9.55
2022-08-26T08:08:27.263Z,9.25
2022-08-26T08:10:49.482Z,11.43
2022-08-26T08:13:16.013Z,9.70
2022-08-26T08:15:42.557Z,10.43
2022-08-26T08:18:14.043Z,11.02
2022-08-26T08:20:47.629Z,10.77
2022-08-26T08:23:21.089Z,11.55
2022-08-26T08:25:48.071Z,12.60
2022-08-26T08:28:15.069Z,11.95
2022-08-26T08:30:42.023Z,10.85
2022-08-26T08:33:08.971Z,11.10
2022-08-26T08:35:37.116Z,11.05
2022-08-26T08:38:07.036Z,12.35
2022-08-26T08:40:33.604Z,11.50
2022-08-26T08:43:09.466Z,10.90
2022-08-26T08:45:47.245Z,10.10
2022-08-26T08:48:28.042Z,10.60
2022-08-26T08:51:03.915Z,9.60
2022-08-26T08:53:38.318Z,9.90
2022-08-26T08:56:37.274Z,11.30
2022-08-26T08:59:15.172Z,9.70
2022-08-26T09:01:41.573Z,9.48
2022-08-26T09:04:27.894Z,10.25
2022-08-26T09:09:38.248Z,9.77
2022-08-26T09:12:11.164Z,9.70
2022-08-26T09:14:37.549Z,11.50
2022-08-26T09:17:17.599Z,11.07
2022-08-26T09:19:52.120Z,12.10
2022-08-26T09:22:37.074Z,13.02
2022-08-26T09:25:11.228Z,11.40
2022-08-26T09:27:40.545Z,10.32
2022-08-26T09:30:08.288Z,10.93
2022-08-26T09:32:38.780Z,10.90
2022-08-26T09:35:24.079Z,9.07
2022-08-26T09:40:27.092Z,9.32
2022-08-26T09:43:10.910Z,9.00
2022-08-26T09:45:39.169Z,8.68
2022-08-26T09:48:06.543Z,9.60
2022-08-26T09:50:49.190Z,10.52
2022-08-26T09:53:17.677Z,10.25
2022-08-26T09:55:51.403Z,9.57
2022-08-26T09:58:37.828Z,10.05
2022-08-26T10:01:14.668Z,9.68
2022-08-26T10:03:42.838Z,9.48
2022-08-26T10:06:18.194Z,9.75
2022-08-26T10:08:58.592Z,9.55
2022-08-26T10:11:37.868Z,12.27
2022-08-26T10:14:14.037Z,12.20
2022-08-26T10:16:41.470Z,12.20
2022-08-26T10:19:16.621Z,11.18
2022-08-26T10:22:05.739Z,11.70
2022-08-26T10:24:42.792Z,12.15
2022-08-26T10:27:21.530Z,11.52
2022-08-26T10:29:51.689Z,11.48
2022-08-26T10:32:25.930Z,12.75
2022-08-26T10:37:26.994Z,13.20
2022-08-26T10:40:02.474Z,10.23
2022-08-26T10:42:38.554Z,10.07
2022-08-26T10:45:11.902Z,10.30
2022-08-26T10:47:58.465Z,9.88
2022-08-26T10:50:30.950Z,9.55
2022-08-26T10:53:32.906Z,11.70
2022-08-26T10:56:15.751Z,11.27
2022-08-26T10:59:06.397Z,12.15
2022-08-26T11:01:50.851Z,12.73
2022-08-26T11:04:34.870Z,13.80
2022-08-26T11:07:37.459Z,13.03
2022-08-26T11:10:08.637Z,14.95
2022-08-26T11:12:35.113Z,14.35
2022-08-26T11:15:09.991Z,14.02
2022-08-26T11:17:45.458Z,12.73
2022-08-26T11:20:30.122Z,12.75
2022-08-26T11:23:35.383Z,12.10
2022-08-26T11:26:07.777Z,10.93
2022-08-26T11:28:49.925Z,11.52
2022-08-26T11:31:19.364Z,11.43
2022-08-26T11:33:51.192Z,12.23
2022-08-26T11:36:45.563Z,10.95
2022-08-26T11:39:29.284Z,11.15
2022-08-26T11:42:01.374Z,11.07
2022-08-26T11:44:38.777Z,12.40
2022-08-26T11:47:07.784Z,13.48
2022-08-26T11:49:38.032Z,13.23
2022-08-26T11:52:22.510Z,12.75
2022-08-26T11:55:06.581Z,12.75
2022-08-26T11:57:34.932Z,11.95
2022-08-26T12:00:02.362Z,12.18
2022-08-26T12:02:28.916Z,12.23
2022-08-26T12:04:56.740Z,12.68
2022-08-26T12:07:27.153Z,14.23
2022-08-26T12:09:58.709Z,18.85
2022-08-26T12:12:34.688Z,15.25
2022-08-26T12:15:20.477Z,16.25
2022-08-26T12:17:53.419Z,14.45
2022-08-26T12:20:40.900Z,15.27
2022-08-26T12:23:07.357Z,15.73
2022-08-26T12:25:35.954Z,15.07
2022-08-26T12:28:05.508Z,15.63
2022-08-26T12:30:31.969Z,15.48
2022-08-26T12:33:22.957Z,17.92
2022-08-26T12:35:54.393Z,16.08
2022-08-26T12:38:23.840Z,16.17
2022-08-26T12:40:50.340Z,15.82
2022-08-26T12:43:38.766Z,15.57
2022-08-26T12:46:06.746Z,17.23
2022-08-26T12:48:36.489Z,16.95
2022-08-26T12:51:06.011Z,14.50
2022-08-26T12:53:35.456Z,17.70
2022-08-26T12:56:17.133Z,17.38
2022-08-26T12:58:43.896Z,14.95
2022-08-26T13:01:10.328Z,16.88
2022-08-26T13:03:36.737Z,18.35
2022-08-26T13:06:15.926Z,16.15
2022-08-26T13:08:45.415Z,17.38
2022-08-26T13:11:19.109Z,19.50
2022-08-26T13:13:50.054Z,17.92
2022-08-26T13:16:16.481Z,20.17
2022-08-26T13:18:42.902Z,17.33
2022-08-26T13:21:28.212Z,17.73
2022-08-26T13:24:09.707Z,19.02
2022-08-26T13:26:36.107Z,18.80
2022-08-26T13:29:04.520Z,18.95
2022-08-26T13:31:33.809Z,16.92
2022-08-26T13:34:02.252Z,18.73
2022-08-26T13:36:29.134Z,17.90
2022-08-26T13:38:55.568Z,18.05
2022-08-26T13:41:29.084Z,17.35
2022-08-26T13:43:56.534Z,16.83
2022-08-26T13:46:25.905Z,15.82
2022-08-26T13:48:52.342Z,17.02
2022-08-26T13:51:18.855Z,16.33
2022-08-26T13:53:45.192Z,15.13
2022-08-26T13:56:11.830Z,15.20
2022-08-26T13:58:38.390Z,16.88
2022-08-26T14:01:04.777Z,16.38
2022-08-26T14:03:31.225Z,16.90
2022-08-26T14:05:57.608Z,15.27
2022-08-26T14:08:24.192Z,15.52
2022-08-26T14:10:50.650Z,14.23
2022-08-26T14:13:17.134Z,15.70
2022-08-26T14:15:43.536Z,15.70
2022-08-26T14:18:13.545Z,13.30
2022-08-26T14:20:48.440Z,14.25
2022-08-26T14:23:14.926Z,15.30
2022-08-26T14:25:41.735Z,15.35
2022-08-26T14:28:08.109Z,14.13
2022-08-26T14:30:34.936Z,14.27
2022-08-26T14:33:01.316Z,14.63
2022-08-26T14:35:30.241Z,16.35
2022-08-26T14:37:57.141Z,13.48
2022-08-26T14:40:31.096Z,15.52
2022-08-26T14:42:59.203Z,15.82
2022-08-26T14:45:27.448Z,15.30
2022-08-26T14:47:55.195Z,16.05
2022-08-26T14:50:23.351Z,16.40
2022-08-26T14:52:50.828Z,16.33
2022-08-26T14:55:17.205Z,16.08
2022-08-26T14:57:43.534Z,14.63
2022-08-26T15:00:10.450Z,15.00
2022-08-26T15:02:36.856Z,16.45
2022-08-26T15:05:03.463Z,15.40
2022-08-26T15:07:29.835Z,15.30
2022-08-26T15:09:56.169Z,14.77
2022-08-26T15:12:22.510Z,14.57
2022-08-26T15:14:48.839Z,9.13
2022-08-26T15:17:15.255Z,8.00
2022-08-26T15:19:41.585Z,7.95
2022-08-26T15:22:07.919Z,5.93
2022-08-26T15:24:34.789Z,6.22
2022-08-26T15:27:01.144Z,5.60
2022-08-26T15:29:27.486Z,5.13
2022-08-26T15:31:55.274Z,4.75
2022-08-26T15:34:23.783Z,4.50
2022-08-26T15:36:50.106Z,3.90
2022-08-26T15:39:17.187Z,3.80
2022-08-26T15:41:43.622Z,2.85
2022-08-26T15:44:11.282Z,3.13
2022-08-26T15:46:38.721Z,3.45
2022-08-26T15:49:05.685Z,3.33
2022-08-26T15:51:35.102Z,4.63
2022-08-26T15:54:11.831Z,5.97
2022-08-26T15:56:38.490Z,6.65
2022-08-26T15:59:06.615Z,7.13
2022-08-26T16:01:33.548Z,9.38
2022-08-26T16:04:00.995Z,12.80
2022-08-26T16:06:31.427Z,14.13
2022-08-26T16:08:58.188Z,13.90
2022-08-26T16:11:25.479Z,14.35
2022-08-26T16:13:52.308Z,11.15
2022-08-26T16:16:18.852Z,11.10
2022-08-26T16:18:45.583Z,9.38
2022-08-26T16:21:20.515Z,8.73
2022-08-26T16:23:47.628Z,10.20
2022-08-26T16:26:19.955Z,10.15
2022-08-26T16:28:47.060Z,9.50
2022-08-26T16:31:13.845Z,8.82
2022-08-26T16:33:40.363Z,8.75
2022-08-26T16:36:08.346Z,36.70
2022-08-26T16:38:36.306Z,10.07
2022-08-26T16:41:03.389Z,9.85
2022-08-26T16:43:29.735Z,10.18
2022-08-26T16:45:56.939Z,9.63
2022-08-26T16:48:23.404Z,9.65
2022-08-26T16:50:50.525Z,10.85
2022-08-26T16:53:16.989Z,9.38
2022-08-26T16:55:47.997Z,10.15
2022-08-26T16:58:14.689Z,9.45
2022-08-26T17:00:41.095Z,9.20
2022-08-26T17:03:07.653Z,10.27
2022-08-26T17:05:34.169Z,8.80
2022-08-26T17:08:00.952Z,8.70
2022-08-26T17:10:28.728Z,8.18
2022-08-26T17:12:55.357Z,7.85
2022-08-26T17:15:21.864Z,8.85
2022-08-26T17:17:48.186Z,7.57
2022-08-26T17:20:16.541Z,7.03
2022-08-26T17:22:46.526Z,5.30
2022-08-26T17:25:16.534Z,5.75
2022-08-26T17:27:43.012Z,5.30
2022-08-26T17:30:10.374Z,5.80
2022-08-26T17:32:36.852Z,5.32
2022-08-26T17:35:04.739Z,5.70
2022-08-26T17:37:31.229Z,6.05
2022-08-26T17:39:57.709Z,5.70
2022-08-26T17:42:31.616Z,6.47
2022-08-26T17:44:58.474Z,5.85
2022-08-26T17:47:24.823Z,5.45
2022-08-26T17:49:51.317Z,6.93
2022-08-26T17:52:17.660Z,6.82
2022-08-26T17:54:44.010Z,7.90
2022-08-26T17:57:10.705Z,10.18
2022-08-26T17:59:37.327Z,12.02
2022-08-26T18:02:07.256Z,11.65
2022-08-26T18:04:33.595Z,11.52
2022-08-26T18:07:00.078Z,11.88
2022-08-26T18:09:26.499Z,13.40
2022-08-26T18:11:52.826Z,12.50
2022-08-26T18:14:19.203Z,13.73
2022-08-26T18:16:45.538Z,13.75
2022-08-26T18:19:11.909Z,13.30
2022-08-26T18:21:38.262Z,13.93
2022-08-26T18:24:04.966Z,15.20
2022-08-26T18:26:35.654Z,14.93
2022-08-26T18:29:02.881Z,15.48
2022-08-26T18:31:30.001Z,14.55
2022-08-26T18:33:58.503Z,15.20
2022-08-26T18:36:28.611Z,14.82
2022-08-26T18:38:55.943Z,14.20
2022-08-26T18:41:24.725Z,15.63
2022-08-26T18:43:52.528Z,14.77
2022-08-26T18:46:20.446Z,15.60
2022-08-26T18:48:51.010Z,15.05
2022-08-26T18:51:20.796Z,14.55
2022-08-26T18:53:47.182Z,13.30
2022-08-26T18:56:16.621Z,14.07
2022-08-26T18:58:45.494Z,13.55
2022-08-26T19:01:13.261Z,13.55
2022-08-26T19:03:40.046Z,13.32
2022-08-26T19:06:06.829Z,13.43
2022-08-26T19:08:33.187Z,12.20
2022-08-26T19:11:00.242Z,11.95
2022-08-26T19:13:26.691Z,11.82
2022-08-26T19:15:53.032Z,11.88
2022-08-26T19:18:19.383Z,11.77
2022-08-26T19:20:46.907Z,11.13
2022-08-26T19:23:30.823Z,11.25
2022-08-26T19:25:58.322Z,10.50
2022-08-26T19:28:24.750Z,8.75
2022-08-26T19:30:53.109Z,8.43
2022-08-26T19:33:19.858Z,7.50
2022-08-26T19:35:46.260Z,7.53
2022-08-26T19:38:13.739Z,7.78
2022-08-26T19:40:40.809Z,6.35
2022-08-26T19:43:07.840Z,6.03
2022-08-26T19:45:35.018Z,5.40
2022-08-26T19:48:02.511Z,5.10
2022-08-26T19:50:31.938Z,5.15
2022-08-26T19:52:59.112Z,4.97
2022-08-26T19:55:25.671Z,5.45
2022-08-26T19:57:52.303Z,4.88
2022-08-26T20:00:22.072Z,4.90
2022-08-26T20:02:48.455Z,4.93
2022-08-26T20:05:15.878Z,4.70
2022-08-26T20:07:42.611Z,4.75
2022-08-26T20:10:11.798Z,4.55
2022-08-26T20:12:38.853Z,5.43
2022-08-26T20:15:05.823Z,4.57
2022-08-26T20:17:32.846Z,4.72
2022-08-26T20:19:59.185Z,4.88
2022-08-26T20:22:25.525Z,4.70
2022-08-26T20:24:51.879Z,4.63
2022-08-26T20:27:18.227Z,4.85
2022-08-26T20:29:44.550Z,4.72
2022-08-26T20:32:10.916Z,4.57
2022-08-26T20:34:37.472Z,5.43
2022-08-26T20:37:04.405Z,4.60
2022-08-26T20:39:30.757Z,4.97
2022-08-26T20:41:58.541Z,5.10
2022-08-26T20:44:26.181Z,4.75
2022-08-26T20:46:52.687Z,4.50
2022-08-26T20:49:19.040Z,4.93
2022-08-26T20:51:48.550Z,5.47
2022-08-26T20:54:14.885Z,5.30
2022-08-26T20:56:41.239Z,5.40
2022-08-26T20:59:08.099Z,5.25
2022-08-26T21:01:36.517Z,5.65
2022-08-26T21:04:09.485Z,4.60
2022-08-26T21:06:36.429Z,5.60
2022-08-26T21:09:05.238Z,5.28
2022-08-26T21:11:32.043Z,5.75
2022-08-26T21:14:06.739Z,5.53
2022-08-26T21:16:35.298Z,5.63
2022-08-26T21:19:02.450Z,5.30
2022-08-26T21:21:28.890Z,5.07
2022-08-26T21:23:55.571Z,5.10
2022-08-26T21:26:22.603Z,5.47
2022-08-26T21:28:49.442Z,4.90
2022-08-26T21:31:18.490Z,5.18
2022-08-26T21:33:44.865Z,5.28
2022-08-26T21:36:12.695Z,5.45
2022-08-26T21:38:39.978Z,5.53
2022-08-26T21:41:15.194Z,5.30
2022-08-26T21:43:42.657Z,5.13
2022-08-26T21:46:11.841Z,5.70
2022-08-26T21:48:39.543Z,5.05
2022-08-26T21:51:06.563Z,5.57
2022-08-26T21:53:32.945Z,5.43
2022-08-26T21:55:59.399Z,6.53
2022-08-26T21:58:25.782Z,6.15
2022-08-26T22:00:52.282Z,6.60
2022-08-26T22:03:18.667Z,6.95
2022-08-26T22:05:47.385Z,7.03
2022-08-26T22:08:13.730Z,7.07
2022-08-26T22:10:41.498Z,7.35
2022-08-26T22:13:11.190Z,7.47
2022-08-26T22:15:37.583Z,7.03
2022-08-26T22:18:05.058Z,7.25
2022-08-26T22:20:31.537Z,7.38
2022-08-26T22:22:58.602Z,7.18
2022-08-26T22:25:25.505Z,7.40
2022-08-26T22:27:51.857Z,7.88
2022-08-26T22:30:18.421Z,7.13
2022-08-26T22:32:45.050Z,7.55
2022-08-26T22:35:29.046Z,8.15
2022-08-26T22:37:57.197Z,8.40
2022-08-26T22:40:23.729Z,7.93
2022-08-26T22:42:57.926Z,8.52
2022-08-26T22:45:26.539Z,8.70
2022-08-26T22:47:52.932Z,8.13
2022-08-26T22:50:19.362Z,9.48
2022-08-26T22:52:45.710Z,9.32
2022-08-26T22:55:12.048Z,7.93
2022-08-26T22:57:38.389Z,8.55
2022-08-26T23:00:05.354Z,8.75
2022-08-26T23:02:31.974Z,9.07
2022-08-26T23:04:58.312Z,8.60
2022-08-26T23:07:24.675Z,9.23
2022-08-26T23:09:51.009Z,8.32
2022-08-26T23:12:17.365Z,9.52
2022-08-26T23:14:43.696Z,8.65
2022-08-26T23:17:11.819Z,10.02
2022-08-26T23:19:38.146Z,9.70
2022-08-26T23:22:04.630Z,9.65
2022-08-26T23:24:31.599Z,9.68
2022-08-26T23:26:58.143Z,8.85
2022-08-26T23:29:24.504Z,9.75
2022-08-26T23:31:50.926Z,8.27
2022-08-26T23:34:17.316Z,9.75
2022-08-26T23:36:44.610Z,9.65
2022-08-26T23:39:12.814Z,10.73
2022-08-26T23:41:39.254Z,10.88
2022-08-26T23:44:05.922Z,10.80
2022-08-26T23:46:34.421Z,10.75
2022-08-26T23:49:01.126Z,11.48
2022-08-26T23:51:27.459Z,11.95
2022-08-26T23:53:53.841Z,11.88
2022-08-26T23:56:20.249Z,11.25
2022-08-26T23:58:47.078Z,12.25
